Sarasota Bradenton International Airport
KSRQ : now visible

Airfield :











YOU CAN JOIN US ON...

 
LOGIN :

Register | Disclaimer

   EN    FR    IT 

 









Legend :    VFR   Marginal VFR   IFR   Intensive IFR   Very Intensive IFR
Visi :
Ceiling :
>= 8 km
>= 3000ft
5 to 8 km
1000 to 3000 ft
1500m to 5 km
500 to 1000 ft
800 to 1500m
200 to 500 ft
< 800m
< 200 ft
Symbols :   Thunderstorms  Fog  Heavy snow  Heavy precipitations  Wind > 20 kt






- Airport Elevation : 30 ft
- IATA code : SRQ


KSRQ - Sarasota Bradenton International

CURRENT METAR :
  • 190153Z AUTO 00000KT 10SM CLR 28/24 A2990 RMK AO2 SLP126 T02780239

EXPIRED METARs :
  • 190053Z AUTO 32004KT 10SM CLR 28/24 A2989 RMK AO2 SLP120 T02780244
  • 182353Z 31006KT 10SM CLR 28/24 A2988 RMK AO2 SLP116 T02830244 10311 20283 51008

TAF KSRQ
Valid from the 19 at 00:00 until the 20 at 00:00 UTC


182321Z 1900/1924 31008KT P6SM FEW040 BKN250
FM190600 02004KT P6SM SCT250
FM191800 28008KT P6SM VCTS SCT040CB BKN250
FM192100 32008KT P6SM VCTS SCT040CB BKN250
FM192300 01010KT P6SM SCT040 BKN250
KZMA FIR / North America



MET'MAP, your aeronautical weather chart ! - Copyright ORBIFLY December 2007 - Disclaimer

ORBIFLY MET'MAP TEAM :

Programming & Development : Alexandra Zaïnal
Concept & original design : Baudouin d'Aumeries
Assistance for programming : Marc-Olivier Méhu
Technical & hardware support : Manuel Goepfert

Contact : metmap@orbifly.com




SOURCES & CREDITS :

   NOAA       Earth
Advisory